Glenwood, Arkansas
Current Conditions -  °F | °C
As of 7:53 AM on Sunday 23 Nov 2014 (Local Time) from KMWT Reporting Station
Overcast Overcast  
Wind Chill: 59°   Ceiling: 700
Heat Index: 59°   Visibility: 10mi
Dew Point: 56°   Wind: 3mph
Humidity: 90%   Direction: NA
Pressure: 29.57"   Gusts: NA
Location:  34.33°N, 93.55°W
Report Text: KMWT 231353Z AUTO VRB03KT 10SM OVC007 15/13 A2957 RMK AO2 RAB13E37 SLP010 P0000 T01500133 $
Loading
Personal Weather Stations






























Interactive Weather Map New forecast layout! Learn more

10-Day Weather Forecast

Advertisements
Track Severe Weather on mobile